Sunday, September 23, 2018, 4:42 AM GMT
Back to Local

CYZX, Greenwood, N. S.

Location: , , Canada Lat: 44.983
Local Time: 4:42 AM GMT ( 4:42 GMT) Lon: -64.917
Time Zone: GMT Elev: 91 ft

Show me the last for .
Show Decoded

2018-09-23 04:00 METAR CYZX 230400Z 27002KT 15SM BKN250 08/06 A3018 RMK CI7 SLP221 =
2018-09-23 03:00 METAR CYZX 230300Z 18003KT 15SM BKN250 08/07 A3018 RMK CI7 SLP221 =
2018-09-23 02:00 METAR CYZX 230200Z 27005KT 15SM BKN250 11/07 A3017 RMK CI7 SLP216 =
2018-09-23 01:00 METAR CYZX 230100Z 23003KT 15SM BKN250 11/07 A3014 RMK CI6 SLP206 =
2018-09-23 00:00 METAR CYZX 230000Z 32006KT 15SM BKN250 12/07 A3010 RMK CI6 SLP194 =
2018-09-22 23:00 METAR CYZX 222300Z 30003KT 15SM SCT250 13/07 A3009 RMK CI4 SLP189 =
2018-09-22 22:00 METAR CYZX 222200Z 32006KT 15SM FEW100 SCT250 15/09 A3005 RMK AC2CI2 SLP178 =
2018-09-22 21:00 METAR CYZX 222100Z 32011KT 15SM FEW100 SCT250 17/09 A3001 RMK AC2CI2 SLP164 =
2018-09-22 20:00 METAR CYZX 222000Z 31009G15KT 15SM FEW100 18/09 A2999 RMK AC2 SLP157 =
2018-09-22 19:00 METAR CYZX 221900Z 33015G22KT 15SM SCT070 18/09 A2996 RMK AC3 SLP146 =
2018-09-22 18:00 METAR CYZX 221800Z 30016G24KT 15SM SCT070 19/13 A2993 RMK AC3 SLP135 =
2018-09-22 17:00 METAR CYZX 221700Z 31013G19KT 15SM SCT070 18/12 A2991 RMK AC3 SLP129 =
2018-09-22 16:00 METAR CYZX 221600Z 28019G25KT 15SM SCT070 20/14 A2986 RMK AC4 SLP114 =
2018-09-22 15:00 METAR CYZX 221500Z 28020G25KT 15SM SCT070 19/15 A2984 RMK AC4 SLP105 =
2018-09-22 14:00 METAR CYZX 221400Z 25017G27KT 15SM FEW030 BKN075 20/17 A2980 RMK SC2AC4 SLP092 =
2018-09-22 13:00 METAR CYZX 221300Z 25018KT 15SM SCT027 BKN060 19/18 A2977 RMK SC3SC3 SLP083 =
2018-09-22 12:33 METAR CYZX 221233Z 25016G25KT 15SM SCT026 OVC060 19/18 A2976 RMK SC4SC4 SLP077 =
2018-09-22 12:00 METAR CYZX 221200Z 24021G30KT 12SM -SHRA OVC018 19/18 A2975 RMK SC8 SLP076 =
2018-09-22 11:30 METAR CYZX 221130Z 24019G27KT 8SM -SHRA BKN018 OVC025 19/18 A2975 RMK SC6SC2
                 SLP074 =
2018-09-22 11:00 METAR CYZX 221100Z 22014G20KT 12SM -SHRA SCT016 OVC025 19/18 A2975 RMK SC4SC4
                 SLP074 =
2018-09-22 10:00 METAR CYZX 221000Z 22017G25KT 12SM -SHRA OVC025 18/17 A2974 RMK SC8 SLP072 =
2018-09-22 09:00 METAR CYZX 220900Z 21017G25KT 12SM -SHRA OVC045 18/16 A2975 RMK SC8 SLP076 =
2018-09-22 08:00 METAR CYZX 220800Z 22019G34KT 15SM -SHRA BKN027 OVC040 19/16 A2979 RMK SC7SC1
                 PCPN VRY LGT SLP088 =
2018-09-22 07:08 METAR CYZX 220708Z 22016G31KT 15SM -SHRA OVC027 19/15 A2981 RMK SC8 PCPN VRY LGT
                 SLP096 =
2018-09-22 07:00 METAR CYZX 220700Z 22022G31KT 15SM OVC030 19/15 A2981 RMK SC8 SLP097 =
2018-09-22 06:00 METAR CYZX 220600Z 22013G25KT 15SM OVC030 18/15 A2984 RMK SC8 SLP107 =
2018-09-22 05:00 METAR CYZX 220500Z 20020G31KT 15SM BKN050 BKN140 18/14 A2988 RMK SC6AC2 SLP120 =

Support USWX by starting your Amazon purchase here.